sensor_id;sensor_type;location;lat;lon;timestamp;P1;durP1;ratioP1;P2;durP2;ratioP2
16824;SDS011;8529;48.108;-1.706;2022-07-23T00:00:05;4.95;;;2.90;;
16824;SDS011;8529;48.108;-1.706;2022-07-23T00:02:35;5.55;;;2.65;;
16824;SDS011;8529;48.108;-1.706;2022-07-23T00:05:02;6.53;;;2.97;;
16824;SDS011;8529;48.108;-1.706;2022-07-23T00:07:29;7.20;;;3.33;;
16824;SDS011;8529;48.108;-1.706;2022-07-23T00:09:56;4.78;;;3.60;;
16824;SDS011;8529;48.108;-1.706;2022-07-23T00:12:23;7.32;;;2.95;;
16824;SDS011;8529;48.108;-1.706;2022-07-23T00:14:51;5.68;;;3.00;;
16824;SDS011;8529;48.108;-1.706;2022-07-23T00:17:18;7.68;;;2.88;;
16824;SDS011;8529;48.108;-1.706;2022-07-23T00:19:46;5.57;;;3.50;;
16824;SDS011;8529;48.108;-1.706;2022-07-23T00:22:13;5.97;;;3.17;;
16824;SDS011;8529;48.108;-1.706;2022-07-23T00:24:40;8.93;;;3.72;;
16824;SDS011;8529;48.108;-1.706;2022-07-23T00:27:07;4.78;;;3.42;;
16824;SDS011;8529;48.108;-1.706;2022-07-23T00:29:34;6.32;;;3.22;;
16824;SDS011;8529;48.108;-1.706;2022-07-23T00:32:00;5.50;;;3.10;;
16824;SDS011;8529;48.108;-1.706;2022-07-23T00:34:27;4.32;;;3.13;;
16824;SDS011;8529;48.108;-1.706;2022-07-23T00:36:56;4.25;;;3.08;;
16824;SDS011;8529;48.108;-1.706;2022-07-23T00:39:23;5.53;;;2.90;;
16824;SDS011;8529;48.108;-1.706;2022-07-23T00:41:50;7.97;;;4.28;;
16824;SDS011;8529;48.108;-1.706;2022-07-23T00:44:18;6.68;;;3.33;;
16824;SDS011;8529;48.108;-1.706;2022-07-23T00:46:48;4.70;;;3.33;;
16824;SDS011;8529;48.108;-1.706;2022-07-23T00:49:18;4.72;;;3.15;;
16824;SDS011;8529;48.108;-1.706;2022-07-23T00:51:46;6.57;;;3.72;;
16824;SDS011;8529;48.108;-1.706;2022-07-23T00:54:15;8.63;;;3.60;;
16824;SDS011;8529;48.108;-1.706;2022-07-23T00:56:42;5.68;;;3.40;;
16824;SDS011;8529;48.108;-1.706;2022-07-23T00:59:10;6.85;;;3.40;;
16824;SDS011;8529;48.108;-1.706;2022-07-23T01:01:38;5.10;;;3.85;;
16824;SDS011;8529;48.108;-1.706;2022-07-23T01:04:05;9.13;;;4.18;;
16824;SDS011;8529;48.108;-1.706;2022-07-23T01:06:33;7.13;;;3.20;;
16824;SDS011;8529;48.108;-1.706;2022-07-23T01:09:03;8.63;;;3.83;;
16824;SDS011;8529;48.108;-1.706;2022-07-23T01:11:32;4.20;;;3.10;;
16824;SDS011;8529;48.108;-1.706;2022-07-23T01:14:07;6.47;;;3.55;;
16824;SDS011;8529;48.108;-1.706;2022-07-23T01:16:35;8.77;;;4.03;;
16824;SDS011;8529;48.108;-1.706;2022-07-23T01:19:02;4.15;;;3.22;;
16824;SDS011;8529;48.108;-1.706;2022-07-23T01:21:31;5.00;;;3.28;;
16824;SDS011;8529;48.108;-1.706;2022-07-23T01:24:02;4.30;;;3.30;;
16824;SDS011;8529;48.108;-1.706;2022-07-23T01:26:29;4.78;;;3.22;;
16824;SDS011;8529;48.108;-1.706;2022-07-23T01:28:56;6.45;;;3.38;;
16824;SDS011;8529;48.108;-1.706;2022-07-23T01:31:23;5.38;;;3.20;;
16824;SDS011;8529;48.108;-1.706;2022-07-23T01:33:50;7.22;;;3.83;;
16824;SDS011;8529;48.108;-1.706;2022-07-23T01:36:17;4.07;;;3.55;;
16824;SDS011;8529;48.108;-1.706;2022-07-23T01:38:43;4.38;;;3.00;;
16824;SDS011;8529;48.108;-1.706;2022-07-23T01:41:12;6.10;;;3.70;;
16824;SDS011;8529;48.108;-1.706;2022-07-23T01:43:39;8.30;;;3.42;;
16824;SDS011;8529;48.108;-1.706;2022-07-23T01:46:06;7.50;;;3.40;;
16824;SDS011;8529;48.108;-1.706;2022-07-23T01:48:33;5.70;;;3.42;;
16824;SDS011;8529;48.108;-1.706;2022-07-23T01:51:00;5.68;;;3.38;;
16824;SDS011;8529;48.108;-1.706;2022-07-23T01:53:27;5.57;;;3.45;;
16824;SDS011;8529;48.108;-1.706;2022-07-23T01:55:56;6.18;;;3.65;;
16824;SDS011;8529;48.108;-1.706;2022-07-23T01:58:24;6.15;;;3.72;;
16824;SDS011;8529;48.108;-1.706;2022-07-23T02:00:52;5.35;;;4.05;;
16824;SDS011;8529;48.108;-1.706;2022-07-23T02:03:19;5.55;;;3.90;;
16824;SDS011;8529;48.108;-1.706;2022-07-23T02:05:46;6.63;;;3.70;;
16824;SDS011;8529;48.108;-1.706;2022-07-23T02:08:13;5.93;;;3.28;;
16824;SDS011;8529;48.108;-1.706;2022-07-23T02:10:40;5.25;;;3.53;;
16824;SDS011;8529;48.108;-1.706;2022-07-23T02:13:07;5.80;;;3.40;;
16824;SDS011;8529;48.108;-1.706;2022-07-23T02:15:35;6.50;;;4.05;;
16824;SDS011;8529;48.108;-1.706;2022-07-23T02:18:02;5.60;;;4.00;;
16824;SDS011;8529;48.108;-1.706;2022-07-23T02:20:29;8.02;;;4.07;;
16824;SDS011;8529;48.108;-1.706;2022-07-23T02:22:56;6.13;;;3.65;;
16824;SDS011;8529;48.108;-1.706;2022-07-23T02:25:23;6.10;;;3.78;;
16824;SDS011;8529;48.108;-1.706;2022-07-23T02:27:50;9.07;;;3.85;;
16824;SDS011;8529;48.108;-1.706;2022-07-23T02:30:17;5.40;;;3.45;;
16824;SDS011;8529;48.108;-1.706;2022-07-23T02:32:45;5.72;;;3.65;;
16824;SDS011;8529;48.108;-1.706;2022-07-23T02:35:12;6.95;;;4.22;;
16824;SDS011;8529;48.108;-1.706;2022-07-23T02:37:39;5.13;;;3.40;;
16824;SDS011;8529;48.108;-1.706;2022-07-23T02:40:06;4.68;;;3.97;;
16824;SDS011;8529;48.108;-1.706;2022-07-23T02:42:34;6.75;;;3.97;;
16824;SDS011;8529;48.108;-1.706;2022-07-23T02:45:01;5.32;;;3.88;;
16824;SDS011;8529;48.108;-1.706;2022-07-23T02:47:27;4.85;;;3.97;;
16824;SDS011;8529;48.108;-1.706;2022-07-23T02:49:58;6.97;;;3.97;;
16824;SDS011;8529;48.108;-1.706;2022-07-23T02:52:25;10.80;;;4.25;;
16824;SDS011;8529;48.108;-1.706;2022-07-23T02:54:52;4.32;;;3.60;;
16824;SDS011;8529;48.108;-1.706;2022-07-23T02:57:19;6.55;;;4.20;;
16824;SDS011;8529;48.108;-1.706;2022-07-23T02:59:45;6.43;;;4.00;;
16824;SDS011;8529;48.108;-1.706;2022-07-23T03:02:12;6.40;;;3.83;;
16824;SDS011;8529;48.108;-1.706;2022-07-23T03:04:39;8.57;;;4.20;;
16824;SDS011;8529;48.108;-1.706;2022-07-23T03:07:08;7.13;;;3.70;;
16824;SDS011;8529;48.108;-1.706;2022-07-23T03:09:35;7.00;;;3.70;;
16824;SDS011;8529;48.108;-1.706;2022-07-23T03:12:02;7.20;;;3.80;;
16824;SDS011;8529;48.108;-1.706;2022-07-23T03:14:29;5.85;;;3.75;;
16824;SDS011;8529;48.108;-1.706;2022-07-23T03:16:56;6.10;;;3.47;;
16824;SDS011;8529;48.108;-1.706;2022-07-23T03:19:24;7.05;;;4.00;;
16824;SDS011;8529;48.108;-1.706;2022-07-23T03:21:51;5.93;;;3.78;;
16824;SDS011;8529;48.108;-1.706;2022-07-23T03:24:20;7.82;;;3.72;;
16824;SDS011;8529;48.108;-1.706;2022-07-23T03:26:48;6.78;;;4.03;;
16824;SDS011;8529;48.108;-1.706;2022-07-23T03:29:15;4.78;;;3.25;;
16824;SDS011;8529;48.108;-1.706;2022-07-23T03:31:43;6.03;;;3.92;;
16824;SDS011;8529;48.108;-1.706;2022-07-23T03:34:10;5.55;;;4.32;;
16824;SDS011;8529;48.108;-1.706;2022-07-23T03:36:37;7.68;;;4.63;;
16824;SDS011;8529;48.108;-1.706;2022-07-23T03:39:04;6.68;;;4.03;;
16824;SDS011;8529;48.108;-1.706;2022-07-23T03:41:32;4.90;;;3.70;;
16824;SDS011;8529;48.108;-1.706;2022-07-23T03:43:59;9.18;;;4.95;;
16824;SDS011;8529;48.108;-1.706;2022-07-23T03:46:26;8.18;;;3.92;;
16824;SDS011;8529;48.108;-1.706;2022-07-23T03:48:53;6.40;;;4.70;;
16824;SDS011;8529;48.108;-1.706;2022-07-23T03:51:20;8.05;;;4.82;;
16824;SDS011;8529;48.108;-1.706;2022-07-23T03:53:46;7.70;;;3.97;;
16824;SDS011;8529;48.108;-1.706;2022-07-23T03:56:14;7.53;;;4.43;;
16824;SDS011;8529;48.108;-1.706;2022-07-23T03:58:42;5.75;;;4.10;;
16824;SDS011;8529;48.108;-1.706;2022-07-23T04:01:09;8.00;;;4.30;;
16824;SDS011;8529;48.108;-1.706;2022-07-23T04:03:37;7.22;;;4.53;;
16824;SDS011;8529;48.108;-1.706;2022-07-23T04:06:04;8.32;;;4.40;;
16824;SDS011;8529;48.108;-1.706;2022-07-23T04:08:32;8.30;;;4.57;;
16824;SDS011;8529;48.108;-1.706;2022-07-23T04:10:59;11.52;;;4.30;;
16824;SDS011;8529;48.108;-1.706;2022-07-23T04:13:26;7.57;;;4.45;;
16824;SDS011;8529;48.108;-1.706;2022-07-23T04:15:54;8.25;;;5.40;;
16824;SDS011;8529;48.108;-1.706;2022-07-23T04:18:21;8.65;;;4.53;;
16824;SDS011;8529;48.108;-1.706;2022-07-23T04:20:49;7.00;;;4.47;;
16824;SDS011;8529;48.108;-1.706;2022-07-23T04:23:17;7.22;;;4.40;;
16824;SDS011;8529;48.108;-1.706;2022-07-23T04:25:44;8.73;;;4.45;;
16824;SDS011;8529;48.108;-1.706;2022-07-23T04:28:11;8.07;;;4.28;;
16824;SDS011;8529;48.108;-1.706;2022-07-23T04:30:38;7.57;;;4.78;;
16824;SDS011;8529;48.108;-1.706;2022-07-23T04:33:06;6.78;;;3.90;;
16824;SDS011;8529;48.108;-1.706;2022-07-23T04:35:33;6.03;;;4.43;;
16824;SDS011;8529;48.108;-1.706;2022-07-23T04:38:00;7.57;;;4.60;;
16824;SDS011;8529;48.108;-1.706;2022-07-23T04:40:28;8.63;;;4.65;;
16824;SDS011;8529;48.108;-1.706;2022-07-23T04:42:55;5.70;;;4.22;;
16824;SDS011;8529;48.108;-1.706;2022-07-23T04:45:22;9.15;;;4.90;;
16824;SDS011;8529;48.108;-1.706;2022-07-23T04:47:50;8.85;;;4.63;;
16824;SDS011;8529;48.108;-1.706;2022-07-23T04:50:18;8.68;;;5.47;;
16824;SDS011;8529;48.108;-1.706;2022-07-23T04:52:46;6.80;;;4.80;;
16824;SDS011;8529;48.108;-1.706;2022-07-23T04:55:13;7.18;;;4.63;;
16824;SDS011;8529;48.108;-1.706;2022-07-23T04:57:41;7.13;;;4.50;;
16824;SDS011;8529;48.108;-1.706;2022-07-23T05:00:08;6.97;;;4.57;;
16824;SDS011;8529;48.108;-1.706;2022-07-23T05:02:36;7.82;;;4.50;;
16824;SDS011;8529;48.108;-1.706;2022-07-23T05:05:03;9.55;;;5.03;;
16824;SDS011;8529;48.108;-1.706;2022-07-23T05:07:32;6.30;;;5.18;;
16824;SDS011;8529;48.108;-1.706;2022-07-23T05:09:59;10.80;;;5.35;;
16824;SDS011;8529;48.108;-1.706;2022-07-23T05:12:26;7.28;;;4.63;;
16824;SDS011;8529;48.108;-1.706;2022-07-23T05:14:53;7.35;;;4.50;;
16824;SDS011;8529;48.108;-1.706;2022-07-23T05:17:20;6.10;;;4.43;;
16824;SDS011;8529;48.108;-1.706;2022-07-23T05:19:47;7.57;;;4.85;;
16824;SDS011;8529;48.108;-1.706;2022-07-23T05:22:14;9.98;;;4.85;;
16824;SDS011;8529;48.108;-1.706;2022-07-23T05:24:42;8.55;;;5.78;;
16824;SDS011;8529;48.108;-1.706;2022-07-23T05:27:09;8.30;;;4.80;;
16824;SDS011;8529;48.108;-1.706;2022-07-23T05:29:36;8.02;;;4.82;;
16824;SDS011;8529;48.108;-1.706;2022-07-23T05:32:03;8.88;;;4.50;;
16824;SDS011;8529;48.108;-1.706;2022-07-23T05:34:31;7.10;;;5.00;;
16824;SDS011;8529;48.108;-1.706;2022-07-23T05:36:58;8.23;;;4.78;;
16824;SDS011;8529;48.108;-1.706;2022-07-23T05:39:25;6.75;;;4.85;;
16824;SDS011;8529;48.108;-1.706;2022-07-23T05:41:53;8.85;;;4.78;;
16824;SDS011;8529;48.108;-1.706;2022-07-23T05:44:20;10.90;;;4.90;;
16824;SDS011;8529;48.108;-1.706;2022-07-23T05:46:47;7.82;;;5.10;;
16824;SDS011;8529;48.108;-1.706;2022-07-23T05:49:14;6.60;;;4.45;;
16824;SDS011;8529;48.108;-1.706;2022-07-23T05:51:41;8.02;;;4.50;;
16824;SDS011;8529;48.108;-1.706;2022-07-23T05:54:08;7.80;;;5.20;;
16824;SDS011;8529;48.108;-1.706;2022-07-23T05:56:35;6.22;;;4.65;;
16824;SDS011;8529;48.108;-1.706;2022-07-23T05:59:03;7.40;;;4.85;;
16824;SDS011;8529;48.108;-1.706;2022-07-23T06:01:31;7.95;;;4.65;;
16824;SDS011;8529;48.108;-1.706;2022-07-23T06:03:58;9.10;;;5.00;;
16824;SDS011;8529;48.108;-1.706;2022-07-23T06:06:25;7.75;;;4.90;;
16824;SDS011;8529;48.108;-1.706;2022-07-23T06:08:52;8.10;;;4.45;;
16824;SDS011;8529;48.108;-1.706;2022-07-23T06:11:18;6.68;;;4.72;;
16824;SDS011;8529;48.108;-1.706;2022-07-23T06:13:45;7.35;;;4.80;;
16824;SDS011;8529;48.108;-1.706;2022-07-23T06:16:14;5.90;;;4.93;;
16824;SDS011;8529;48.108;-1.706;2022-07-23T06:18:41;10.15;;;5.45;;
16824;SDS011;8529;48.108;-1.706;2022-07-23T06:21:08;11.10;;;5.72;;
16824;SDS011;8529;48.108;-1.706;2022-07-23T06:23:35;7.32;;;4.38;;
16824;SDS011;8529;48.108;-1.706;2022-07-23T06:26:02;9.00;;;5.07;;
16824;SDS011;8529;48.108;-1.706;2022-07-23T06:28:29;6.35;;;5.18;;
16824;SDS011;8529;48.108;-1.706;2022-07-23T06:30:56;10.60;;;5.03;;
16824;SDS011;8529;48.108;-1.706;2022-07-23T06:33:24;8.00;;;5.53;;
16824;SDS011;8529;48.108;-1.706;2022-07-23T06:35:51;8.40;;;4.65;;
16824;SDS011;8529;48.108;-1.706;2022-07-23T06:38:18;9.73;;;5.70;;
16824;SDS011;8529;48.108;-1.706;2022-07-23T06:40:45;6.40;;;5.75;;
16824;SDS011;8529;48.108;-1.706;2022-07-23T06:43:12;18.38;;;16.50;;
16824;SDS011;8529;48.108;-1.706;2022-07-23T06:45:39;8.43;;;5.95;;
16824;SDS011;8529;48.108;-1.706;2022-07-23T06:48:06;7.55;;;5.57;;
16824;SDS011;8529;48.108;-1.706;2022-07-23T06:50:34;6.40;;;4.78;;
16824;SDS011;8529;48.108;-1.706;2022-07-23T06:53:01;6.78;;;4.63;;
16824;SDS011;8529;48.108;-1.706;2022-07-23T06:55:28;7.22;;;5.18;;
16824;SDS011;8529;48.108;-1.706;2022-07-23T06:57:56;6.80;;;4.78;;
16824;SDS011;8529;48.108;-1.706;2022-07-23T07:00:23;13.30;;;5.68;;
16824;SDS011;8529;48.108;-1.706;2022-07-23T07:02:53;6.68;;;5.00;;
16824;SDS011;8529;48.108;-1.706;2022-07-23T07:05:20;7.45;;;5.00;;
16824;SDS011;8529;48.108;-1.706;2022-07-23T07:07:49;8.02;;;5.03;;
16824;SDS011;8529;48.108;-1.706;2022-07-23T07:10:16;7.60;;;4.40;;
16824;SDS011;8529;48.108;-1.706;2022-07-23T07:12:43;7.60;;;4.53;;
16824;SDS011;8529;48.108;-1.706;2022-07-23T07:15:10;5.60;;;4.38;;
16824;SDS011;8529;48.108;-1.706;2022-07-23T07:17:37;6.47;;;4.68;;
16824;SDS011;8529;48.108;-1.706;2022-07-23T07:20:05;7.65;;;5.68;;
16824;SDS011;8529;48.108;-1.706;2022-07-23T07:22:32;5.70;;;4.35;;
16824;SDS011;8529;48.108;-1.706;2022-07-23T07:25:01;6.90;;;4.32;;
16824;SDS011;8529;48.108;-1.706;2022-07-23T07:27:28;5.07;;;4.50;;
16824;SDS011;8529;48.108;-1.706;2022-07-23T07:29:54;4.93;;;4.07;;
16824;SDS011;8529;48.108;-1.706;2022-07-23T07:32:21;18.00;;;5.32;;
16824;SDS011;8529;48.108;-1.706;2022-07-23T07:34:48;7.10;;;4.40;;
16824;SDS011;8529;48.108;-1.706;2022-07-23T07:37:15;6.95;;;4.47;;
16824;SDS011;8529;48.108;-1.706;2022-07-23T07:39:42;6.00;;;4.43;;
16824;SDS011;8529;48.108;-1.706;2022-07-23T07:42:11;5.70;;;4.40;;
16824;SDS011;8529;48.108;-1.706;2022-07-23T07:44:37;10.00;;;4.22;;
16824;SDS011;8529;48.108;-1.706;2022-07-23T07:47:04;6.15;;;4.20;;
16824;SDS011;8529;48.108;-1.706;2022-07-23T07:49:32;6.20;;;4.30;;
16824;SDS011;8529;48.108;-1.706;2022-07-23T07:51:59;6.47;;;4.40;;
16824;SDS011;8529;48.108;-1.706;2022-07-23T07:54:26;8.63;;;4.15;;
16824;SDS011;8529;48.108;-1.706;2022-07-23T07:56:53;5.18;;;3.85;;
16824;SDS011;8529;48.108;-1.706;2022-07-23T07:59:22;6.82;;;3.70;;
16824;SDS011;8529;48.108;-1.706;2022-07-23T08:01:49;6.05;;;3.88;;
16824;SDS011;8529;48.108;-1.706;2022-07-23T08:04:15;5.40;;;3.88;;
16824;SDS011;8529;48.108;-1.706;2022-07-23T08:06:42;5.57;;;3.42;;
16824;SDS011;8529;48.108;-1.706;2022-07-23T08:09:09;6.47;;;3.83;;
16824;SDS011;8529;48.108;-1.706;2022-07-23T08:11:36;5.00;;;3.05;;
16824;SDS011;8529;48.108;-1.706;2022-07-23T08:14:03;7.18;;;3.50;;
16824;SDS011;8529;48.108;-1.706;2022-07-23T08:16:32;6.75;;;3.88;;
16824;SDS011;8529;48.108;-1.706;2022-07-23T08:18:58;4.43;;;3.33;;
16824;SDS011;8529;48.108;-1.706;2022-07-23T08:21:25;3.80;;;3.03;;
16824;SDS011;8529;48.108;-1.706;2022-07-23T08:23:52;5.03;;;3.10;;
16824;SDS011;8529;48.108;-1.706;2022-07-23T08:26:19;6.88;;;4.10;;
16824;SDS011;8529;48.108;-1.706;2022-07-23T08:28:46;4.65;;;3.10;;
16824;SDS011;8529;48.108;-1.706;2022-07-23T08:31:13;21.30;;;11.30;;
16824;SDS011;8529;48.108;-1.706;2022-07-23T08:33:43;14.32;;;7.85;;
16824;SDS011;8529;48.108;-1.706;2022-07-23T08:36:09;8.23;;;4.13;;
16824;SDS011;8529;48.108;-1.706;2022-07-23T08:38:36;5.35;;;3.17;;
16824;SDS011;8529;48.108;-1.706;2022-07-23T08:41:03;7.18;;;3.50;;
16824;SDS011;8529;48.108;-1.706;2022-07-23T08:43:33;6.05;;;3.22;;
16824;SDS011;8529;48.108;-1.706;2022-07-23T08:46:01;5.20;;;2.72;;
16824;SDS011;8529;48.108;-1.706;2022-07-23T08:48:29;4.03;;;2.80;;
16824;SDS011;8529;48.108;-1.706;2022-07-23T08:50:59;8.75;;;3.92;;
16824;SDS011;8529;48.108;-1.706;2022-07-23T08:53:27;7.22;;;3.13;;
16824;SDS011;8529;48.108;-1.706;2022-07-23T08:55:55;5.22;;;2.47;;
16824;SDS011;8529;48.108;-1.706;2022-07-23T08:58:23;4.95;;;3.08;;
16824;SDS011;8529;48.108;-1.706;2022-07-23T09:00:51;4.15;;;2.75;;
16824;SDS011;8529;48.108;-1.706;2022-07-23T09:03:19;5.07;;;2.97;;
16824;SDS011;8529;48.108;-1.706;2022-07-23T09:05:47;5.72;;;2.65;;
16824;SDS011;8529;48.108;-1.706;2022-07-23T09:08:20;5.57;;;2.88;;
16824;SDS011;8529;48.108;-1.706;2022-07-23T09:10:49;6.80;;;2.88;;
16824;SDS011;8529;48.108;-1.706;2022-07-23T09:13:32;5.88;;;2.70;;
16824;SDS011;8529;48.108;-1.706;2022-07-23T09:16:02;4.93;;;2.75;;
16824;SDS011;8529;48.108;-1.706;2022-07-23T09:18:33;3.38;;;2.35;;
16824;SDS011;8529;48.108;-1.706;2022-07-23T09:23:52;2.80;;;2.50;;
16824;SDS011;8529;48.108;-1.706;2022-07-23T09:26:27;6.60;;;2.63;;
16824;SDS011;8529;48.108;-1.706;2022-07-23T09:29:05;4.13;;;2.33;;
16824;SDS011;8529;48.108;-1.706;2022-07-23T09:31:35;3.58;;;2.30;;
16824;SDS011;8529;48.108;-1.706;2022-07-23T09:34:13;2.10;;;1.90;;
16824;SDS011;8529;48.108;-1.706;2022-07-23T09:36:46;5.38;;;2.38;;
16824;SDS011;8529;48.108;-1.706;2022-07-23T09:39:15;3.67;;;2.33;;
16824;SDS011;8529;48.108;-1.706;2022-07-23T09:41:50;5.25;;;2.22;;
16824;SDS011;8529;48.108;-1.706;2022-07-23T09:44:18;3.08;;;2.20;;
16824;SDS011;8529;48.108;-1.706;2022-07-23T09:46:47;5.03;;;2.40;;
16824;SDS011;8529;48.108;-1.706;2022-07-23T09:49:18;3.20;;;2.30;;
16824;SDS011;8529;48.108;-1.706;2022-07-23T09:51:47;3.13;;;1.95;;
16824;SDS011;8529;48.108;-1.706;2022-07-23T09:54:23;3.38;;;1.80;;
16824;SDS011;8529;48.108;-1.706;2022-07-23T09:56:56;3.97;;;2.50;;
16824;SDS011;8529;48.108;-1.706;2022-07-23T09:59:25;3.30;;;2.20;;
16824;SDS011;8529;48.108;-1.706;2022-07-23T10:01:55;4.40;;;1.90;;
16824;SDS011;8529;48.108;-1.706;2022-07-23T10:04:24;3.47;;;2.13;;
16824;SDS011;8529;48.108;-1.706;2022-07-23T10:06:52;4.88;;;2.58;;
16824;SDS011;8529;48.108;-1.706;2022-07-23T10:09:23;3.15;;;2.00;;
16824;SDS011;8529;48.108;-1.706;2022-07-23T10:11:57;3.65;;;2.15;;
16824;SDS011;8529;48.108;-1.706;2022-07-23T10:14:29;3.33;;;1.92;;
16824;SDS011;8529;48.108;-1.706;2022-07-23T10:16:59;2.30;;;1.85;;
16824;SDS011;8529;48.108;-1.706;2022-07-23T10:19:27;2.58;;;2.00;;
16824;SDS011;8529;48.108;-1.706;2022-07-23T10:21:55;2.63;;;1.75;;
16824;SDS011;8529;48.108;-1.706;2022-07-23T10:24:30;2.90;;;2.00;;
16824;SDS011;8529;48.108;-1.706;2022-07-23T10:27:13;4.20;;;2.22;;
16824;SDS011;8529;48.108;-1.706;2022-07-23T10:30:09;2.83;;;1.70;;
16824;SDS011;8529;48.108;-1.706;2022-07-23T10:32:44;4.22;;;1.90;;
16824;SDS011;8529;48.108;-1.706;2022-07-23T10:35:18;6.10;;;2.05;;
16824;SDS011;8529;48.108;-1.706;2022-07-23T10:37:54;2.78;;;2.05;;
16824;SDS011;8529;48.108;-1.706;2022-07-23T10:40:27;3.42;;;2.08;;
16824;SDS011;8529;48.108;-1.706;2022-07-23T10:42:58;2.58;;;1.60;;
16824;SDS011;8529;48.108;-1.706;2022-07-23T10:45:30;4.13;;;2.25;;
16824;SDS011;8529;48.108;-1.706;2022-07-23T10:48:12;4.93;;;2.15;;
16824;SDS011;8529;48.108;-1.706;2022-07-23T10:50:41;2.47;;;1.83;;
16824;SDS011;8529;48.108;-1.706;2022-07-23T10:53:15;2.45;;;1.70;;
16824;SDS011;8529;48.108;-1.706;2022-07-23T10:55:46;3.42;;;2.05;;
16824;SDS011;8529;48.108;-1.706;2022-07-23T10:58:17;3.95;;;2.00;;
16824;SDS011;8529;48.108;-1.706;2022-07-23T11:00:47;2.72;;;2.08;;
16824;SDS011;8529;48.108;-1.706;2022-07-23T11:03:27;3.90;;;2.17;;
16824;SDS011;8529;48.108;-1.706;2022-07-23T11:06:01;2.40;;;1.70;;
16824;SDS011;8529;48.108;-1.706;2022-07-23T11:08:28;3.60;;;2.47;;
16824;SDS011;8529;48.108;-1.706;2022-07-23T11:11:08;3.97;;;1.90;;
16824;SDS011;8529;48.108;-1.706;2022-07-23T11:13:40;3.45;;;1.55;;
16824;SDS011;8529;48.108;-1.706;2022-07-23T11:16:15;2.42;;;1.65;;
16824;SDS011;8529;48.108;-1.706;2022-07-23T11:18:55;3.50;;;2.05;;
16824;SDS011;8529;48.108;-1.706;2022-07-23T11:21:43;2.55;;;1.67;;
16824;SDS011;8529;48.108;-1.706;2022-07-23T11:24:23;2.72;;;1.70;;
16824;SDS011;8529;48.108;-1.706;2022-07-23T11:26:56;2.88;;;1.63;;
16824;SDS011;8529;48.108;-1.706;2022-07-23T11:29:46;3.50;;;1.80;;
16824;SDS011;8529;48.108;-1.706;2022-07-23T11:35:22;2.30;;;1.65;;
16824;SDS011;8529;48.108;-1.706;2022-07-23T11:37:53;3.92;;;2.08;;
16824;SDS011;8529;48.108;-1.706;2022-07-23T11:40:23;2.60;;;1.75;;
16824;SDS011;8529;48.108;-1.706;2022-07-23T11:42:54;5.20;;;1.98;;
16824;SDS011;8529;48.108;-1.706;2022-07-23T11:45:23;2.88;;;1.30;;
16824;SDS011;8529;48.108;-1.706;2022-07-23T11:47:52;1.85;;;1.67;;
16824;SDS011;8529;48.108;-1.706;2022-07-23T11:50:24;2.45;;;1.60;;
16824;SDS011;8529;48.108;-1.706;2022-07-23T11:52:51;1.50;;;1.40;;
16824;SDS011;8529;48.108;-1.706;2022-07-23T11:55:19;1.60;;;1.38;;
16824;SDS011;8529;48.108;-1.706;2022-07-23T11:57:46;1.80;;;1.25;;
16824;SDS011;8529;48.108;-1.706;2022-07-23T12:00:15;3.22;;;1.38;;
16824;SDS011;8529;48.108;-1.706;2022-07-23T12:02:44;1.55;;;1.40;;
16824;SDS011;8529;48.108;-1.706;2022-07-23T12:05:13;2.22;;;1.40;;
16824;SDS011;8529;48.108;-1.706;2022-07-23T12:07:42;1.83;;;1.40;;
16824;SDS011;8529;48.108;-1.706;2022-07-23T12:10:12;2.20;;;1.52;;
16824;SDS011;8529;48.108;-1.706;2022-07-23T12:12:42;3.10;;;1.33;;
16824;SDS011;8529;48.108;-1.706;2022-07-23T12:15:10;1.92;;;1.33;;
16824;SDS011;8529;48.108;-1.706;2022-07-23T12:17:41;1.83;;;1.48;;
16824;SDS011;8529;48.108;-1.706;2022-07-23T12:20:09;3.30;;;1.70;;
16824;SDS011;8529;48.108;-1.706;2022-07-23T12:22:40;1.50;;;1.40;;
16824;SDS011;8529;48.108;-1.706;2022-07-23T12:25:09;1.55;;;1.40;;
16824;SDS011;8529;48.108;-1.706;2022-07-23T12:27:37;1.85;;;1.60;;
16824;SDS011;8529;48.108;-1.706;2022-07-23T12:30:22;2.08;;;1.80;;
16824;SDS011;8529;48.108;-1.706;2022-07-23T12:32:52;3.78;;;1.60;;
16824;SDS011;8529;48.108;-1.706;2022-07-23T12:35:21;3.92;;;1.80;;
16824;SDS011;8529;48.108;-1.706;2022-07-23T12:37:49;1.95;;;1.48;;
16824;SDS011;8529;48.108;-1.706;2022-07-23T12:40:24;12.00;;;5.85;;
16824;SDS011;8529;48.108;-1.706;2022-07-23T12:42:56;2.58;;;1.90;;
16824;SDS011;8529;48.108;-1.706;2022-07-23T12:45:24;3.25;;;1.95;;
16824;SDS011;8529;48.108;-1.706;2022-07-23T12:47:54;2.28;;;1.48;;
16824;SDS011;8529;48.108;-1.706;2022-07-23T12:50:30;1.40;;;1.30;;
16824;SDS011;8529;48.108;-1.706;2022-07-23T12:53:05;2.60;;;1.30;;
16824;SDS011;8529;48.108;-1.706;2022-07-23T12:55:33;1.65;;;1.52;;
16824;SDS011;8529;48.108;-1.706;2022-07-23T12:58:04;2.67;;;1.70;;
16824;SDS011;8529;48.108;-1.706;2022-07-23T13:03:34;2.55;;;1.50;;
16824;SDS011;8529;48.108;-1.706;2022-07-23T13:06:04;1.67;;;1.48;;
16824;SDS011;8529;48.108;-1.706;2022-07-23T13:08:32;2.47;;;1.40;;
16824;SDS011;8529;48.108;-1.706;2022-07-23T13:11:01;1.48;;;1.38;;
16824;SDS011;8529;48.108;-1.706;2022-07-23T13:13:30;1.52;;;1.33;;
16824;SDS011;8529;48.108;-1.706;2022-07-23T13:15:58;1.75;;;1.35;;
16824;SDS011;8529;48.108;-1.706;2022-07-23T13:18:26;1.60;;;1.50;;
16824;SDS011;8529;48.108;-1.706;2022-07-23T13:20:55;2.97;;;1.40;;
16824;SDS011;8529;48.108;-1.706;2022-07-23T13:23:22;2.17;;;1.40;;
16824;SDS011;8529;48.108;-1.706;2022-07-23T13:25:50;2.15;;;1.48;;
16824;SDS011;8529;48.108;-1.706;2022-07-23T13:28:18;1.92;;;1.25;;
16824;SDS011;8529;48.108;-1.706;2022-07-23T13:30:46;2.53;;;1.50;;
16824;SDS011;8529;48.108;-1.706;2022-07-23T13:33:15;2.75;;;1.40;;
16824;SDS011;8529;48.108;-1.706;2022-07-23T13:35:42;3.88;;;1.48;;
16824;SDS011;8529;48.108;-1.706;2022-07-23T13:38:11;2.08;;;1.85;;
16824;SDS011;8529;48.108;-1.706;2022-07-23T13:40:39;1.60;;;1.50;;
16824;SDS011;8529;48.108;-1.706;2022-07-23T13:43:08;2.35;;;1.25;;
16824;SDS011;8529;48.108;-1.706;2022-07-23T13:45:37;2.00;;;1.30;;
16824;SDS011;8529;48.108;-1.706;2022-07-23T13:48:05;1.70;;;1.50;;
16824;SDS011;8529;48.108;-1.706;2022-07-23T13:50:32;2.88;;;1.40;;
16824;SDS011;8529;48.108;-1.706;2022-07-23T13:53:00;1.73;;;1.40;;
16824;SDS011;8529;48.108;-1.706;2022-07-23T13:55:29;2.05;;;1.30;;
16824;SDS011;8529;48.108;-1.706;2022-07-23T13:57:56;1.85;;;1.50;;
16824;SDS011;8529;48.108;-1.706;2022-07-23T14:00:23;1.40;;;1.30;;
16824;SDS011;8529;48.108;-1.706;2022-07-23T14:02:51;2.30;;;1.42;;
16824;SDS011;8529;48.108;-1.706;2022-07-23T14:05:19;1.38;;;1.13;;
16824;SDS011;8529;48.108;-1.706;2022-07-23T14:07:46;2.38;;;1.50;;
16824;SDS011;8529;48.108;-1.706;2022-07-23T14:10:15;1.50;;;1.30;;
16824;SDS011;8529;48.108;-1.706;2022-07-23T14:12:44;1.75;;;1.27;;
16824;SDS011;8529;48.108;-1.706;2022-07-23T14:15:12;1.70;;;1.42;;
16824;SDS011;8529;48.108;-1.706;2022-07-23T14:17:40;1.83;;;1.23;;
16824;SDS011;8529;48.108;-1.706;2022-07-23T14:20:08;1.40;;;1.30;;
16824;SDS011;8529;48.108;-1.706;2022-07-23T14:22:37;1.40;;;1.30;;
16824;SDS011;8529;48.108;-1.706;2022-07-23T14:25:05;2.20;;;1.60;;
16824;SDS011;8529;48.108;-1.706;2022-07-23T14:27:33;4.72;;;1.50;;
16824;SDS011;8529;48.108;-1.706;2022-07-23T14:30:04;2.67;;;1.50;;
16824;SDS011;8529;48.108;-1.706;2022-07-23T14:32:32;2.42;;;1.40;;
16824;SDS011;8529;48.108;-1.706;2022-07-23T14:34:59;1.98;;;1.20;;
16824;SDS011;8529;48.108;-1.706;2022-07-23T14:37:27;1.48;;;1.38;;
16824;SDS011;8529;48.108;-1.706;2022-07-23T14:39:54;1.45;;;1.35;;
16824;SDS011;8529;48.108;-1.706;2022-07-23T14:42:20;2.53;;;1.30;;
16824;SDS011;8529;48.108;-1.706;2022-07-23T14:44:47;1.23;;;1.10;;
16824;SDS011;8529;48.108;-1.706;2022-07-23T14:47:16;1.60;;;1.50;;
16824;SDS011;8529;48.108;-1.706;2022-07-23T14:49:43;1.92;;;1.10;;
16824;SDS011;8529;48.108;-1.706;2022-07-23T14:52:10;2.97;;;1.42;;
16824;SDS011;8529;48.108;-1.706;2022-07-23T14:54:37;1.40;;;1.30;;
16824;SDS011;8529;48.108;-1.706;2022-07-23T14:57:04;1.92;;;1.30;;
16824;SDS011;8529;48.108;-1.706;2022-07-23T14:59:32;1.40;;;1.20;;
16824;SDS011;8529;48.108;-1.706;2022-07-23T15:01:59;1.38;;;1.27;;
16824;SDS011;8529;48.108;-1.706;2022-07-23T15:04:28;2.30;;;1.27;;